Pagina principale
METAR-TAF:

METAR-TAF

Aeroporti :

Kulusuk, Groenlandia

latitudine: 65-35N, longitudine: 037-09W, altezza: 35 m

Osservazione

Il bollettino è stato emesso 34 minuti fa, alle 18:50 UTC
Vento 4 kt da ovest/nord-ovest, variando fra ovest e nord/nord-ovest
Temperature -11°C
Umidità 47%
Pressione 998 hPa
Visibilità 10 km o più

METAR: BGKK 241850Z AUTO 30004KT 260V330 9999NDV SCT048/// M11/M20 Q0998

Ora: 16:24 (19:24 UTC)


TAF: mancante

Osservazioni e previsioni meteorologiche di più di 4000 aeroporti (messaggi METAR e TAF).

Le stazioni disponibili sono rappresentate dai dischi gialli e rossi sulla carta.

Puntare il mouse per vedere il nome della stazione.

Clicca sopra per visualizzare le osservazioni e previsioni meteorologiche.

Per cambiare la mappa : fare clic sui pulsanti verdi con una croce nera per ingrandire, il pulsante verde con un trattino per diminuire, o sulla freccia verde per le mappe adiacenti.


METAR-TAF: